createdAt,value
2018-05-24T00:02:19.792Z,102072.86
2018-05-24T00:04:47.898Z,102079.02
2018-05-24T00:07:16.213Z,102074.42
2018-05-24T00:09:44.287Z,102078.06
2018-05-24T00:12:12.396Z,102071.17
2018-05-24T00:14:40.493Z,102083.94
2018-05-24T00:17:08.592Z,102075.89
2018-05-24T00:19:36.692Z,102076.23
2018-05-24T00:22:04.786Z,102072.48
2018-05-24T00:24:32.884Z,102072.16
2018-05-24T00:27:00.969Z,102075.94
2018-05-24T00:29:29.054Z,102071.44
2018-05-24T00:31:57.219Z,102073.16
2018-05-24T00:34:25.305Z,102073.53
2018-05-24T00:36:53.401Z,102074.31
2018-05-24T00:39:21.496Z,102066.45
2018-05-24T00:41:50.601Z,102067.14
2018-05-24T00:44:19.460Z,102066.61
2018-05-24T00:46:47.577Z,102064.63
2018-05-24T01:02:15.693Z,102057.58
2018-05-24T01:04:45.574Z,102056.78
2018-05-24T01:07:13.663Z,102057.03
2018-05-24T01:09:41.769Z,102057.91
2018-05-24T01:12:09.853Z,102058.55
2018-05-24T01:14:37.954Z,102057.22
2018-05-24T01:17:06.382Z,102062.20
2018-05-24T01:19:34.461Z,102056.09
2018-05-24T01:22:02.565Z,102063.43
2018-05-24T01:24:31.019Z,102062.86
2018-05-24T01:26:59.090Z,102055.97
2018-05-24T01:29:27.181Z,102056.50
2018-05-24T01:31:55.293Z,102056.42
2018-05-24T01:34:29.463Z,102059.38
2018-05-24T01:37:14.833Z,102059.55
2018-05-24T01:39:42.921Z,102055.30
2018-05-24T01:42:11.190Z,102057.65
2018-05-24T01:44:39.304Z,102062.05
2018-05-24T01:47:07.396Z,102059.08
2018-05-24T01:49:35.484Z,102061.53
2018-05-24T01:52:03.618Z,102051.98
2018-05-24T01:54:31.712Z,102057.73
2018-05-24T01:56:59.828Z,102057.23
2018-05-24T01:59:27.942Z,102057.17
2018-05-24T02:01:56.048Z,102054.59
2018-05-24T02:04:24.207Z,102056.95
2018-05-24T02:06:52.304Z,102052.98
2018-05-24T02:09:20.398Z,102045.48
2018-05-24T02:11:48.511Z,102050.22
2018-05-24T02:14:16.604Z,102046.31
2018-05-24T02:16:44.702Z,102051.66
2018-05-24T02:19:12.822Z,102051.34
2018-05-24T02:21:40.928Z,102049.64
2018-05-24T02:24:09.910Z,102050.66
2018-05-24T02:26:38.012Z,102045.44
2018-05-24T02:42:06.542Z,102035.66
2018-05-24T02:44:34.626Z,102040.42
2018-05-24T02:47:02.736Z,102035.77
2018-05-24T02:49:30.847Z,102036.92
2018-05-24T02:51:58.944Z,102037.94
2018-05-24T02:54:27.032Z,102035.72
2018-05-24T02:56:56.029Z,102034.55
2018-05-24T02:59:24.120Z,102028.27
2018-05-24T03:01:53.131Z,102027.94
2018-05-24T03:04:21.279Z,102027.41
2018-05-24T03:06:49.368Z,102025.64
2018-05-24T03:09:17.473Z,102019.89
2018-05-24T03:11:45.586Z,102019.28
2018-05-24T03:14:18.665Z,102021.10
2018-05-24T03:16:46.983Z,102022.80
2018-05-24T03:19:15.691Z,102019.96
2018-05-24T03:21:43.788Z,102021.33
2018-05-24T03:26:58.214Z,102013.78
2018-05-24T03:29:27.196Z,102012.59
2018-05-24T03:31:55.296Z,102012.95
2018-05-24T03:34:23.381Z,102005.41
2018-05-24T03:36:51.808Z,102006.23
2018-05-24T03:39:19.916Z,102008.63
2018-05-24T03:41:48.019Z,102012.52
2018-05-24T03:44:16.124Z,102014.22
2018-05-24T03:46:44.208Z,102010.58
2018-05-24T03:49:12.376Z,102015.52
2018-05-24T03:51:40.444Z,102008.36
2018-05-24T03:54:08.536Z,102018.22
2018-05-24T03:56:36.636Z,102010.15
2018-05-24T04:02:34.067Z,102014.30
2018-05-24T04:05:02.146Z,102011.48
2018-05-24T04:07:30.234Z,102017.94
2018-05-24T04:09:58.333Z,102015.48
2018-05-24T04:12:26.428Z,102013.98
2018-05-24T04:14:54.822Z,102007.30
2018-05-24T04:17:22.917Z,102010.72
2018-05-24T04:19:51.004Z,102005.79
2018-05-24T04:22:19.116Z,102010.80
2018-05-24T04:24:47.214Z,102009.16
2018-05-24T04:27:15.304Z,102004.33
2018-05-24T04:29:43.416Z,102007.48
2018-05-24T04:32:11.536Z,102002.91
2018-05-24T04:34:39.620Z,102002.45
2018-05-24T04:37:07.768Z,102006.47
2018-05-24T04:39:35.856Z,102008.03
2018-05-24T04:42:03.955Z,102009.53
2018-05-24T04:44:32.057Z,102006.61
2018-05-24T04:47:00.172Z,102002.42
2018-05-24T04:49:29.093Z,102005.27
2018-05-24T04:51:57.197Z,101998.87
2018-05-24T04:54:25.716Z,102001.03
2018-05-24T04:56:53.804Z,102006.47
2018-05-24T04:59:22.507Z,102012.73
2018-05-24T05:01:50.620Z,102014.16
2018-05-24T05:04:18.710Z,102017.45
2018-05-24T05:06:46.838Z,102018.78
2018-05-24T05:09:14.940Z,102016.69
2018-05-24T05:11:43.059Z,102026.57
2018-05-24T05:14:11.149Z,102025.84
2018-05-24T05:16:39.280Z,102026.75
2018-05-24T05:19:07.392Z,102020.72
2018-05-24T05:21:35.468Z,102025.80
2018-05-24T05:24:03.602Z,102025.49
2018-05-24T05:26:31.693Z,102023.03
2018-05-24T05:29:00.679Z,102024.81
2018-05-24T05:31:28.795Z,102022.52
2018-05-24T05:33:56.880Z,102022.35
2018-05-24T05:36:24.977Z,102022.54
2018-05-24T05:38:53.733Z,102018.38
2018-05-24T05:41:21.812Z,102019.48
2018-05-24T05:43:50.673Z,102021.34
2018-05-24T05:46:18.784Z,102017.45
2018-05-24T05:48:46.890Z,102027.16
2018-05-24T05:51:15.013Z,102023.69
2018-05-24T05:53:43.129Z,102032.72
2018-05-24T05:56:11.238Z,102030.45
2018-05-24T05:58:39.339Z,102018.85
2018-05-24T06:01:07.441Z,102023.80
2018-05-24T06:03:35.535Z,102023.37
2018-05-24T06:06:03.672Z,102024.33
2018-05-24T06:08:31.795Z,102035.04
2018-05-24T06:10:59.868Z,102036.68
2018-05-24T06:23:12.989Z,102021.47
2018-05-24T06:25:41.084Z,102024.38
2018-05-24T06:28:09.186Z,102012.64
2018-05-24T06:30:42.729Z,102020.19
2018-05-24T06:33:10.831Z,102014.67
2018-05-24T06:35:38.926Z,102011.20
2018-05-24T06:38:07.025Z,102010.84
2018-05-24T06:40:35.190Z,102012.00
2018-05-24T06:43:03.205Z,102008.96
2018-05-24T06:45:31.595Z,102011.17
2018-05-24T06:47:59.686Z,102009.95
2018-05-24T06:50:27.801Z,102009.62
2018-05-24T06:52:55.900Z,102012.53
2018-05-24T06:55:23.989Z,102019.97
2018-05-24T06:57:52.084Z,102015.08
2018-05-24T07:00:20.225Z,102018.06
2018-05-24T07:02:48.308Z,102013.27
2018-05-24T07:05:16.425Z,102006.63
2018-05-24T07:07:45.749Z,102013.33
2018-05-24T07:10:13.892Z,102008.43
2018-05-24T07:12:41.973Z,102015.69
2018-05-24T07:15:10.085Z,102012.66
2018-05-24T07:17:38.185Z,102022.50
2018-05-24T07:20:06.295Z,102022.47
2018-05-24T07:22:34.377Z,102019.09
2018-05-24T07:25:02.487Z,102017.97
2018-05-24T07:27:30.617Z,102023.27
2018-05-24T07:29:59.530Z,102024.06
2018-05-24T07:32:27.954Z,102023.00
2018-05-24T07:34:56.101Z,102015.72
2018-05-24T07:37:24.196Z,102009.78
2018-05-24T07:39:52.652Z,102011.97
2018-05-24T07:42:20.741Z,102004.72
2018-05-24T07:44:48.876Z,102007.13
2018-05-24T07:47:17.043Z,102003.73
2018-05-24T07:49:50.749Z,101997.23
2018-05-24T07:52:18.872Z,102005.31
2018-05-24T07:54:47.035Z,102006.11
2018-05-24T07:57:15.073Z,102000.17
2018-05-24T07:59:43.201Z,102002.09
2018-05-24T08:02:11.289Z,101993.65
2018-05-24T08:04:39.385Z,101988.51
2018-05-24T08:07:07.503Z,101985.05
2018-05-24T08:09:35.636Z,101985.91
2018-05-24T08:12:03.713Z,101985.41
2018-05-24T08:14:31.860Z,101988.02
2018-05-24T08:16:59.973Z,101984.05
2018-05-24T08:19:28.088Z,101982.65
2018-05-24T08:21:56.264Z,101986.18
2018-05-24T08:24:24.319Z,101981.69
2018-05-24T08:26:52.412Z,101977.75
2018-05-24T08:29:20.507Z,101975.27
2018-05-24T08:31:48.683Z,101976.43
2018-05-24T08:34:16.804Z,101979.75
2018-05-24T08:36:44.898Z,101980.13
2018-05-24T08:39:13.033Z,101975.78
2018-05-24T08:41:41.265Z,101976.02
2018-05-24T08:44:09.247Z,101975.59
2018-05-24T08:46:37.377Z,101983.38
2018-05-24T08:49:05.459Z,101981.56
2018-05-24T08:51:33.613Z,101985.51
2018-05-24T08:54:01.715Z,101995.74
2018-05-24T08:56:29.795Z,101986.73
2018-05-24T08:58:57.887Z,101982.83
2018-05-24T09:01:26.067Z,101981.59
2018-05-24T09:03:54.118Z,101979.75
2018-05-24T09:06:22.202Z,101978.84
2018-05-24T09:08:50.361Z,101987.23
2018-05-24T09:11:18.452Z,101988.61
2018-05-24T09:13:46.546Z,101991.26
2018-05-24T09:29:14.680Z,101961.90
2018-05-24T09:31:42.782Z,101968.89
2018-05-24T09:34:10.889Z,101975.30
2018-05-24T09:36:39.255Z,101970.30
2018-05-24T09:39:07.369Z,101971.55
2018-05-24T09:41:35.469Z,101968.42
2018-05-24T09:44:03.686Z,101963.70
2018-05-24T09:46:31.790Z,101971.12
2018-05-24T09:48:59.900Z,101972.23
2018-05-24T09:51:28.024Z,101956.13
2018-05-24T09:53:56.147Z,101962.89
2018-05-24T09:56:24.249Z,101966.89
2018-05-24T09:58:52.352Z,101962.74
2018-05-24T10:01:20.481Z,101957.79
2018-05-24T10:03:48.654Z,101954.16
2018-05-24T10:06:17.754Z,101958.61
2018-05-24T10:08:45.896Z,101963.08
2018-05-24T10:11:13.984Z,101961.56
2018-05-24T10:13:42.081Z,101956.05
2018-05-24T10:16:10.283Z,101962.13
2018-05-24T10:18:38.625Z,101961.20
2018-05-24T10:21:06.706Z,101955.59
2018-05-24T10:23:34.899Z,101952.94
2018-05-24T10:26:02.929Z,101957.11
2018-05-24T10:28:31.085Z,101958.33
2018-05-24T10:30:59.212Z,101957.73
2018-05-24T10:33:27.326Z,101952.21
2018-05-24T10:35:56.085Z,101954.07
2018-05-24T10:38:24.181Z,101955.70
2018-05-24T10:40:52.301Z,101957.52
2018-05-24T10:43:21.485Z,101952.78
2018-05-24T10:45:56.083Z,101953.38
2018-05-24T10:48:24.200Z,101952.19
2018-05-24T10:50:52.321Z,101946.03
2018-05-24T10:53:21.041Z,101946.85
2018-05-24T10:55:49.194Z,101945.27
2018-05-24T10:58:17.303Z,101940.29
2018-05-24T11:00:45.405Z,101932.67
2018-05-24T11:03:13.619Z,101939.66
2018-05-24T11:05:41.713Z,101931.99
2018-05-24T11:08:09.813Z,101929.08
2018-05-24T11:10:37.925Z,101922.26
2018-05-24T11:13:06.076Z,101930.60
2018-05-24T11:15:34.190Z,101921.23
2018-05-24T11:18:03.040Z,101915.86
2018-05-24T11:20:31.171Z,101915.47
2018-05-24T11:22:59.323Z,101916.83
2018-05-24T11:25:27.441Z,101912.09
2018-05-24T11:27:55.603Z,101906.92
2018-05-24T11:30:23.705Z,101907.84
2018-05-24T11:32:51.834Z,101907.14
2018-05-24T11:35:19.941Z,101906.84
2018-05-24T11:37:48.695Z,101905.02
2018-05-24T11:40:16.819Z,101909.05
2018-05-24T11:42:44.976Z,101904.78
2018-05-24T11:45:13.081Z,101901.64
2018-05-24T11:47:41.196Z,101902.73
2018-05-24T11:50:09.312Z,101897.52
2018-05-24T11:52:37.441Z,101891.10
2018-05-24T11:55:05.569Z,101891.54
2018-05-24T11:57:33.671Z,101879.40
2018-05-24T12:00:01.763Z,101882.42
2018-05-24T12:02:29.895Z,101886.45
2018-05-24T12:04:57.997Z,101879.00
2018-05-24T12:07:26.384Z,101872.52
2018-05-24T12:09:54.518Z,101873.27
2018-05-24T12:12:23.492Z,101873.69
2018-05-24T12:14:51.620Z,101871.66
2018-05-24T12:17:19.779Z,101872.12
2018-05-24T12:19:47.987Z,101870.05
2018-05-24T12:22:16.065Z,101861.50
2018-05-24T12:24:44.199Z,101860.89
2018-05-24T12:27:12.342Z,101858.95
2018-05-24T12:29:40.438Z,101856.25
2018-05-24T12:32:08.579Z,101849.88
2018-05-24T12:34:36.671Z,101847.52
2018-05-24T12:37:05.701Z,101849.81
2018-05-24T12:39:33.812Z,101842.30
2018-05-24T12:42:01.914Z,101839.78
2018-05-24T12:44:30.058Z,101843.89
2018-05-24T12:47:03.657Z,101841.45
2018-05-24T12:49:31.791Z,101838.84
2018-05-24T12:51:59.897Z,101834.81
2018-05-24T12:54:28.113Z,101831.62
2018-05-24T12:56:56.227Z,101836.42
2018-05-24T12:59:24.349Z,101833.91
2018-05-24T13:01:52.454Z,101826.30
2018-05-24T13:04:20.603Z,101831.00
2018-05-24T13:06:49.000Z,101828.30
2018-05-24T13:09:17.121Z,101829.38
2018-05-24T13:11:45.235Z,101831.11
2018-05-24T13:14:13.592Z,101824.77
2018-05-24T13:16:41.688Z,101824.91
2018-05-24T13:19:09.852Z,101818.80
2018-05-24T13:21:37.935Z,101818.58
2018-05-24T13:24:06.037Z,101816.22
2018-05-24T13:26:34.176Z,101819.19
2018-05-24T13:29:02.273Z,101811.14
2018-05-24T13:31:31.152Z,101811.59
2018-05-24T13:34:00.133Z,101818.18
2018-05-24T13:36:28.258Z,101812.13
2018-05-24T13:38:56.406Z,101812.48
2018-05-24T13:41:24.530Z,101811.25
2018-05-24T13:43:52.653Z,101803.90
2018-05-24T13:46:20.760Z,101799.41
2018-05-24T13:48:54.413Z,101798.37
2018-05-24T13:51:27.965Z,101794.22
2018-05-24T13:53:56.083Z,101795.65
2018-05-24T13:56:24.214Z,101787.34
2018-05-24T13:58:52.308Z,101782.96
2018-05-24T14:01:20.454Z,101783.23
2018-05-24T14:03:48.562Z,101779.72
2018-05-24T14:06:17.645Z,101772.97
2018-05-24T14:08:46.727Z,101772.92
2018-05-24T14:11:14.835Z,101770.20
2018-05-24T14:13:43.285Z,101770.55
2018-05-24T14:16:11.396Z,101761.45
2018-05-24T14:18:39.517Z,101769.39
2018-05-24T14:21:07.636Z,101758.28
2018-05-24T14:23:35.788Z,101761.67
2018-05-24T14:26:04.809Z,101755.50
2018-05-24T14:28:32.892Z,101745.30
2018-05-24T14:31:01.003Z,101745.11
2018-05-24T14:33:30.126Z,101735.66
2018-05-24T14:35:58.307Z,101732.36
2018-05-24T14:38:31.992Z,101734.14
2018-05-24T14:41:00.143Z,101733.09
2018-05-24T14:43:28.236Z,101729.51
2018-05-24T14:45:56.342Z,101727.34
2018-05-24T14:48:24.540Z,101720.42
2018-05-24T14:50:52.661Z,101725.75
2018-05-24T14:53:20.828Z,101723.89
2018-05-24T14:55:50.138Z,101716.77
2018-05-24T14:58:18.584Z,101717.89
2018-05-24T15:00:46.686Z,101711.78
2018-05-24T15:03:14.802Z,101712.45
2018-05-24T15:05:43.948Z,101711.00
2018-05-24T15:08:12.077Z,101710.38
2018-05-24T15:10:40.252Z,101704.39
2018-05-24T15:13:09.387Z,101696.53
2018-05-24T15:15:38.046Z,101693.58
2018-05-24T15:18:06.155Z,101688.45
2018-05-24T15:20:34.266Z,101686.89
2018-05-24T15:23:02.393Z,101686.04
2018-05-24T15:25:30.598Z,101681.95
2018-05-24T15:27:59.002Z,101681.33
2018-05-24T15:30:27.205Z,101675.38
2018-05-24T15:32:55.369Z,101675.07
2018-05-24T15:35:23.713Z,101676.73
2018-05-24T15:37:52.017Z,101681.05
2018-05-24T15:40:20.614Z,101675.19
2018-05-24T15:42:48.755Z,101679.45
2018-05-24T15:45:16.986Z,101680.16
2018-05-24T15:47:45.206Z,101676.42
2018-05-24T15:50:13.481Z,101671.56
2018-05-24T15:52:41.690Z,101672.42
2018-05-24T15:55:10.074Z,101679.81
2018-05-24T15:57:38.174Z,101675.62
2018-05-24T16:00:06.293Z,101670.25
2018-05-24T16:02:34.481Z,101675.77
2018-05-24T16:05:02.588Z,101666.72
2018-05-24T16:20:30.729Z,101667.34
2018-05-24T16:22:59.502Z,101661.73
2018-05-24T16:25:27.612Z,101666.86
2018-05-24T16:27:55.748Z,101663.75
2018-05-24T16:30:24.244Z,101670.24
2018-05-24T16:32:52.338Z,101668.29
2018-05-24T16:35:20.532Z,101668.88
2018-05-24T16:37:48.622Z,101671.44
2018-05-24T16:40:18.230Z,101666.53
2018-05-24T16:42:46.368Z,101667.27
2018-05-24T16:45:14.477Z,101664.43
2018-05-24T16:47:42.589Z,101663.88
2018-05-24T16:50:10.693Z,101660.41
2018-05-24T16:52:38.798Z,101653.22
2018-05-24T16:55:07.545Z,101651.74
2018-05-24T16:57:36.427Z,101651.00
2018-05-24T17:00:04.794Z,101645.28
2018-05-24T17:02:32.936Z,101646.05
2018-05-24T17:05:01.077Z,101644.19
2018-05-24T17:07:29.178Z,101650.25
2018-05-24T17:09:57.311Z,101653.91
2018-05-24T17:12:25.453Z,101657.30
2018-05-24T17:14:53.649Z,101652.23
2018-05-24T17:17:22.640Z,101651.85
2018-05-24T17:19:50.741Z,101649.20
2018-05-24T17:22:19.842Z,101641.69
2018-05-24T17:24:48.273Z,101634.45
2018-05-24T17:27:16.372Z,101631.66
2018-05-24T17:29:45.872Z,101634.52
2018-05-24T17:32:14.344Z,101633.83
2018-05-24T17:34:42.484Z,101630.00
2018-05-24T17:37:11.600Z,101629.92
2018-05-24T17:39:40.868Z,101620.19
2018-05-24T17:42:09.936Z,101628.37
2018-05-24T17:44:38.813Z,101625.33
2018-05-24T17:47:07.660Z,101622.18
2018-05-24T17:49:35.783Z,101624.86
2018-05-24T17:52:04.220Z,101626.39
2018-05-24T17:54:32.312Z,101623.66
2018-05-24T17:57:00.413Z,101630.17
2018-05-24T17:59:28.624Z,101624.80
2018-05-24T18:01:56.724Z,101623.98
2018-05-24T18:04:24.844Z,101630.80
2018-05-24T18:06:53.842Z,101628.15
2018-05-24T18:09:21.952Z,101632.86
2018-05-24T18:11:50.059Z,101633.80
2018-05-24T18:14:19.186Z,101638.78
2018-05-24T18:16:47.288Z,101649.25
2018-05-24T18:19:15.405Z,101643.87
2018-05-24T18:21:44.117Z,101649.83
2018-05-24T18:24:12.224Z,101650.81
2018-05-24T18:26:40.361Z,101649.37
2018-05-24T18:29:08.534Z,101669.38
2018-05-24T18:31:36.680Z,101654.97
2018-05-24T18:34:04.773Z,101663.14
2018-05-24T18:36:32.949Z,101664.13
2018-05-24T18:39:01.085Z,101660.97
2018-05-24T18:41:30.093Z,101657.51
2018-05-24T18:43:59.169Z,101660.27
2018-05-24T18:46:27.293Z,101659.97
2018-05-24T18:48:55.392Z,101663.20
2018-05-24T18:51:24.317Z,101663.00
2018-05-24T18:53:52.423Z,101657.67
2018-05-24T18:56:20.557Z,101661.91
2018-05-24T18:58:52.681Z,101653.75
2018-05-24T19:01:20.803Z,101661.66
2018-05-24T19:03:48.925Z,101658.27
2018-05-24T19:06:17.050Z,101654.30
2018-05-24T19:08:45.190Z,101654.92
2018-05-24T19:11:13.301Z,101646.92
2018-05-24T19:13:41.461Z,101649.52
2018-05-24T19:16:09.577Z,101656.02
2018-05-24T19:18:37.758Z,101657.45
2018-05-24T19:21:05.888Z,101659.12
2018-05-24T19:23:34.067Z,101655.70
2018-05-24T19:26:02.173Z,101660.34
2018-05-24T19:28:31.024Z,101658.66
2018-05-24T19:30:59.228Z,101655.78
2018-05-24T19:33:27.381Z,101665.78
2018-05-24T19:35:55.484Z,101665.00
2018-05-24T19:38:23.597Z,101669.62
2018-05-24T19:40:51.730Z,101660.33
2018-05-24T19:43:19.845Z,101659.59
2018-05-24T19:45:48.017Z,101666.47
2018-05-24T19:48:17.109Z,101662.08
2018-05-24T19:50:45.223Z,101671.80
2018-05-24T19:53:13.378Z,101670.98
2018-05-24T19:55:41.505Z,101671.13
2018-05-24T19:58:10.329Z,101674.39
2018-05-24T20:00:38.465Z,101672.72
2018-05-24T20:03:06.601Z,101677.46
2018-05-24T20:05:34.719Z,101677.11
2018-05-24T20:08:02.853Z,101679.39
2018-05-24T20:10:31.622Z,101679.55
2018-05-24T20:12:59.775Z,101682.96
2018-05-24T20:15:28.182Z,101683.00
2018-05-24T20:17:56.308Z,101684.87
2018-05-24T20:20:24.434Z,101696.37
2018-05-24T20:22:53.318Z,101691.42
2018-05-24T20:25:21.418Z,101696.78
2018-05-24T20:27:49.783Z,101690.09
2018-05-24T20:30:17.919Z,101685.70
2018-05-24T20:32:46.060Z,101687.17
2018-05-24T20:35:14.172Z,101686.70
2018-05-24T20:37:42.286Z,101691.94
2018-05-24T20:40:10.395Z,101689.53
2018-05-24T20:42:38.678Z,101687.31
2018-05-24T20:45:06.796Z,101690.62
2018-05-24T20:47:35.072Z,101687.30
2018-05-24T20:50:03.812Z,101693.52
2018-05-24T20:52:32.777Z,101682.72
2018-05-24T20:55:00.878Z,101688.59
2018-05-24T21:10:29.021Z,101682.59
2018-05-24T21:12:57.130Z,101689.20
2018-05-24T21:15:25.238Z,101684.58
2018-05-24T21:17:53.385Z,101687.37
2018-05-24T21:20:21.512Z,101690.20
2018-05-24T21:22:49.602Z,101688.53
2018-05-24T21:25:17.717Z,101684.17
2018-05-24T21:27:45.824Z,101679.92
2018-05-24T21:30:13.954Z,101678.39
2018-05-24T21:32:42.534Z,101678.03
2018-05-24T21:35:10.670Z,101672.32
2018-05-24T21:37:38.784Z,101675.66
2018-05-24T21:40:06.909Z,101673.62
2018-05-24T21:42:35.079Z,101675.52
2018-05-24T21:45:03.188Z,101678.21
2018-05-24T21:47:31.298Z,101682.21
2018-05-24T21:49:59.433Z,101680.39
2018-05-24T21:52:27.534Z,101686.41
2018-05-24T21:54:55.668Z,101684.69
2018-05-24T21:57:23.768Z,101689.48
2018-05-24T21:59:52.380Z,101682.55
2018-05-24T22:02:20.510Z,101682.84
2018-05-24T22:04:48.685Z,101684.81
2018-05-24T22:07:16.796Z,101687.64
2018-05-24T22:09:44.901Z,101685.21
2018-05-24T22:12:13.029Z,101696.15
2018-05-24T22:14:41.165Z,101692.30
2018-05-24T22:17:09.343Z,101697.94
2018-05-24T22:19:37.465Z,101699.30
2018-05-24T22:22:05.577Z,101709.52
2018-05-24T22:24:33.685Z,101706.73
2018-05-24T22:27:01.797Z,101708.66
2018-05-24T22:29:29.928Z,101709.20
2018-05-24T22:31:58.072Z,101709.59
2018-05-24T22:34:26.168Z,101712.63
2018-05-24T22:36:54.305Z,101711.13
2018-05-24T22:39:22.417Z,101715.53
2018-05-24T22:41:50.523Z,101714.73
2018-05-24T22:44:18.644Z,101717.06
2018-05-24T22:46:46.761Z,101712.48
2018-05-24T22:49:14.884Z,101713.41
2018-05-24T22:51:43.012Z,101710.66
2018-05-24T22:54:11.140Z,101712.27
2018-05-24T22:56:39.298Z,101703.94
2018-05-24T22:59:07.368Z,101706.33
2018-05-24T23:01:36.138Z,101699.43
2018-05-24T23:04:04.265Z,101701.01
2018-05-24T23:06:32.381Z,101692.47
2018-05-24T23:09:00.513Z,101698.72
2018-05-24T23:11:28.631Z,101689.07
2018-05-24T23:13:56.744Z,101688.43
2018-05-24T23:16:24.857Z,101684.71
2018-05-24T23:18:52.980Z,101693.00
2018-05-24T23:21:21.175Z,101686.33
2018-05-24T23:23:49.300Z,101685.89
2018-05-24T23:26:17.411Z,101681.61
2018-05-24T23:28:45.523Z,101681.71
2018-05-24T23:31:13.643Z,101682.03
2018-05-24T23:33:42.961Z,101688.72
2018-05-24T23:36:11.067Z,101692.58
2018-05-24T23:38:39.213Z,101692.75
2018-05-24T23:41:07.349Z,101696.58
2018-05-24T23:43:35.465Z,101697.05
2018-05-24T23:46:03.603Z,101698.94
2018-05-24T23:48:31.693Z,101701.48
2018-05-24T23:50:59.855Z,101697.80
2018-05-24T23:53:27.937Z,101697.27
2018-05-24T23:55:56.043Z,101695.91
2018-05-24T23:58:24.374Z,101690.14
